Cape Race, Canada
Current Conditions -  °F | °C
As of 10:00 AM on Friday 31 Oct 2014 (Local Time) from CYYT Reporting Station
Scattered Clouds Scattered Clouds  
Wind Chill: 37°   Ceiling: Unl
Heat Index: 45°   Visibility: 15mi
Dew Point: 39°   Wind: 17mph
Humidity: 81%   Direction: 290°WNW
Pressure: 29.87"   Gusts: NA
Location:  46.66°N, 53.09°W
Report Text: CYYT 311200Z 29015KT 15SM SCT025 07/04 A2987 RMK SC3 SLP117
Loading
Personal Weather Stations






























Interactive Weather Map
Tropical Storm Tracking
New forecast layout! Learn more

10-Day Weather Forecast

Advertisements
Track Severe Weather on mobile